Airfield :
LOGIN :

Register | Disclaimer

   EN    FR    IT 

 










Legend :    VFR   Marginal VFR   IFR   Intensive IFR   Very Intensive IFR
Visi :
Ceiling :
>= 8 km
>= 3000ft
5 to 8 km
1000 to 3000 ft
1500m to 5 km
500 to 1000 ft
800 to 1500m
200 to 500 ft
< 800m
< 200 ft
Symbols :   Thunderstorms  Fog  Heavy snow  Heavy precipitations  Wind > 20 kt
SIGMETs :     Misc.  Thunderstorms  Icing  Turbulence  Mountain Waves  Volcanic Ashes







- Airport Elevation : 93 ft
- IATA code : XRY


LEJR - Jerez

CURRENT METAR :
  • 122330Z AUTO 16003KT CAVOK 13/11 Q1021

EXPIRED METARs :
  • 122300Z AUTO VRB01KT 9999 BKN039/// 13/11 Q1021
  • 122230Z AUTO 23002KT 9999 OVC039/// 13/12 Q1021
  • 122200Z 00000KT 9000 BKN039 13/12 Q1021
  • 122130Z 17002KT 9000 SCT032 BKN038 13/12 Q1022
  • 122100Z 20001KT 9000 FEW016 BKN035 13/12 Q1022

TAF TAF LEJR
Valid from the 13 at 00:00 until the 14 at 00:00 UTC


122300Z 1300/1324 23009KT 9999 SCT020 TX16/1309Z TN11/1318Z
PROB40
TEMPO 1304/1308 23015G25KT
TEMPO 1300/1310 4000 RA BKN009
BECMG 1308/1310 29012KT
PROB40
TEMPO 1306/1312 31020G35KT
PROB40
TEMPO 1306/1318 31015G25KT
No reported NOTAMs for that airfield.
1 SIGMET reported for the Madrid FIR (LECM) :
 
Severe turbulence
LECM SIGMET 1 VALID 130000/130400 LEVA
LECM MADRID FIR SEV TURB FCST W OF LINE N4450 W00640 - N42 W00650 SFC/FL220 MOV E NC=



MET'MAP, your aeronautical weather chart ! - Copyright ORBIFLY December 2007 - Disclaimer

ORBIFLY MET'MAP TEAM :

Programming & Development : Alexandra Zaïnal
Concept & Development : Baudouin d'Aumeries
Co-Development & Prog : Marc-Olivier Méhu
Technical & hardware support : Manuel Goepfert

Contact : metmap@orbifly.com




SOURCES & CREDITS :

   NOAA